Time;durP1;ratioP1;P1;durP2;ratioP2;P2;SDS_P1;SDS_P2;PMS_P1;PMS_P2;Temp;Humidity;BMP_temperature;BMP_pressure;BME280_temperature;BME280_humidity;BME280_pressure;Samples;Min_cycle;Max_cycle;Signal;HPM_P1;HPM_P2
2022/11/06 00:00:40;;;;;;;32.30;30.10;;;9.70;99.90;;;;;;5087576;28;20503;-54
2022/11/06 00:03:06;;;;;;;31.83;29.63;;;9.70;99.90;;;;;;5085347;28;20398;-50
2022/11/06 00:08:29;;;;;;;33.58;31.52;;;9.70;99.90;;;;;;5085295;28;20769;-52
2022/11/06 00:10:55;;;;;;;34.25;32.10;;;9.70;99.90;;;;;;5082339;28;20523;-54
2022/11/06 00:13:21;;;;;;;35.40;33.17;;;9.70;99.90;;;;;;5085123;28;20665;-53
2022/11/06 00:15:46;;;;;;;38.63;36.37;;;9.80;99.90;;;;;;5084606;28;20401;-53
2022/11/06 00:18:12;;;;;;;33.60;31.67;;;9.80;99.90;;;;;;5083097;28;20410;-55
2022/11/06 00:20:37;;;;;;;29.73;27.98;;;9.80;99.90;;;;;;5084448;28;20797;-53
2022/11/06 00:23:03;;;;;;;32.70;30.53;;;9.80;99.90;;;;;;5081975;28;20390;-53
2022/11/06 00:25:28;;;;;;;31.00;29.17;;;9.80;99.90;;;;;;5084034;28;20382;-52
2022/11/06 00:27:54;;;;;;;32.00;30.15;;;9.80;99.90;;;;;;5083293;28;20396;-54
2022/11/06 00:30:19;;;;;;;35.37;33.07;;;9.80;99.90;;;;;;5084586;28;20393;-55
2022/11/06 00:32:46;;;;;;;30.13;28.27;;;9.80;99.90;;;;;;5082259;28;20486;-52
2022/11/06 00:35:12;;;;;;;31.40;29.48;;;9.70;99.90;;;;;;5087889;28;20432;-53
2022/11/06 00:37:38;;;;;;;29.35;27.52;;;9.80;99.90;;;;;;5090706;28;20516;-54
2022/11/06 00:40:04;;;;;;;32.45;30.48;;;9.80;99.90;;;;;;5087346;28;20800;-53
2022/11/06 00:42:30;;;;;;;32.40;30.30;;;9.70;99.90;;;;;;5087382;28;20392;-54
2022/11/06 00:44:55;;;;;;;33.30;31.20;;;9.70;99.90;;;;;;5085249;28;20398;-55
2022/11/06 00:47:21;;;;;;;32.63;30.63;;;9.80;99.90;;;;;;5086268;28;20784;-55
2022/11/06 00:49:47;;;;;;;31.70;29.73;;;9.80;99.90;;;;;;5085805;28;20802;-53
2022/11/06 00:52:12;;;;;;;30.30;28.53;;;9.80;99.90;;;;;;5086494;28;20880;-53
2022/11/06 00:54:38;;;;;;;29.80;27.97;;;9.70;99.90;;;;;;5086772;28;20375;-53
2022/11/06 00:57:03;;;;;;;31.42;29.42;;;9.70;99.90;;;;;;5086410;28;20386;-55
2022/11/06 00:59:29;;;;;;;31.37;29.37;;;9.70;99.90;;;;;;5086797;28;20402;-56
2022/11/06 01:01:54;;;;;;;28.63;26.93;;;9.70;99.90;;;;;;5087279;28;20390;-56
2022/11/06 01:04:21;;;;;;;30.63;28.80;;;9.70;99.90;;;;;;5089936;28;20385;-51
2022/11/06 01:06:52;;;;;;;30.67;28.77;;;9.70;99.90;;;;;;5087146;28;20371;-50
2022/11/06 01:09:20;;;;;;;30.10;28.27;;;9.70;99.90;;;;;;5090497;28;20378;-54
2022/11/06 01:11:52;;;;;;;28.48;26.77;;;9.70;99.90;;;;;;5090843;28;20477;-52
2022/11/06 01:14:20;;;;;;;32.10;29.88;;;9.70;99.90;;;;;;5092244;28;20386;-56
2022/11/06 01:16:45;;;;;;;28.02;26.33;;;9.70;99.90;;;;;;5092148;28;20398;-50
2022/11/06 01:19:12;;;;;;;30.60;28.65;;;9.70;99.90;;;;;;5092487;28;20421;-51
2022/11/06 01:21:40;;;;;;;27.33;25.55;;;9.60;99.90;;;;;;5092269;28;20627;-54
2022/11/06 01:24:10;;;;;;;28.93;26.70;;;9.60;99.90;;;;;;5087795;28;20741;-54
2022/11/06 01:26:36;;;;;;;28.67;26.90;;;9.70;99.90;;;;;;5088795;28;20662;-55
2022/11/06 01:29:02;;;;;;;29.25;27.52;;;9.70;99.90;;;;;;5088142;28;20388;-53
2022/11/06 01:31:30;;;;;;;32.45;30.55;;;9.70;99.90;;;;;;5087091;28;20394;-56
2022/11/06 01:33:57;;;;;;;32.25;30.25;;;9.80;99.90;;;;;;5086974;28;20413;-55
2022/11/06 01:36:24;;;;;;;34.70;32.60;;;9.70;99.90;;;;;;5087904;28;20621;-52
2022/11/06 01:38:52;;;;;;;31.13;29.02;;;9.60;99.90;;;;;;5089477;28;20433;-52
2022/11/06 01:41:20;;;;;;;31.58;29.40;;;9.70;99.90;;;;;;5088331;28;20374;-52
2022/11/06 01:43:48;;;;;;;31.60;29.80;;;9.70;99.90;;;;;;5089677;28;20537;-52
2022/11/06 01:46:16;;;;;;;32.20;30.33;;;9.70;99.90;;;;;;5087018;28;20382;-52
2022/11/06 01:48:46;;;;;;;33.03;31.08;;;9.70;99.90;;;;;;5088445;28;20484;-53
2022/11/06 01:51:13;;;;;;;31.92;30.13;;;9.80;99.90;;;;;;5088606;28;20378;-53
2022/11/06 01:53:39;;;;;;;30.42;28.42;;;9.80;99.90;;;;;;5087471;28;20386;-49
2022/11/06 01:56:08;;;;;;;33.78;31.88;;;9.80;99.90;;;;;;5089995;28;20790;-53
2022/11/06 01:58:37;;;;;;;30.92;29.13;;;9.80;99.90;;;;;;5088440;28;20673;-51
2022/11/06 02:01:03;;;;;;;33.47;31.48;;;9.80;99.90;;;;;;5087065;28;20396;-52
2022/11/06 02:03:29;;;;;;;33.13;31.05;;;9.70;99.90;;;;;;5088276;28;20470;-54
2022/11/06 02:05:56;;;;;;;34.30;32.40;;;9.80;99.90;;;;;;5088075;28;20847;-50
2022/11/06 02:08:23;;;;;;;32.67;30.77;;;9.80;99.90;;;;;;5088028;28;20904;-53
2022/11/06 02:10:49;;;;;;;35.65;33.35;;;9.70;99.90;;;;;;5090605;28;20658;-53
2022/11/06 02:13:33;;;;;;;33.92;31.83;;;9.70;99.90;;;;;;5090666;28;20394;-50
2022/11/06 02:16:44;;;;;;;28.27;26.38;;;9.60;99.90;;;;;;5090334;28;20386;-52
2022/11/06 02:19:36;;;;;;;27.77;26.00;;;9.60;99.90;;;;;;5056526;28;20490;-50
2022/11/06 02:22:39;;;;;;;26.95;25.30;;;9.50;99.90;;;;;;5090993;28;20378;-53
2022/11/06 02:25:24;;;;;;;31.45;29.52;;;9.60;99.90;;;;;;5088853;28;20390;-52
2022/11/06 02:28:21;;;;;;;29.27;27.50;;;9.70;99.90;;;;;;5088672;28;20809;-51
2022/11/06 02:30:49;;;;;;;31.15;29.27;;;9.70;99.90;;;;;;5105219;28;20382;-54
2022/11/06 02:33:27;;;;;;;32.28;30.35;;;9.80;99.90;;;;;;5090805;28;20491;-50
2022/11/06 02:36:11;;;;;;;32.42;30.50;;;9.80;99.90;;;;;;5090693;28;20413;-50
2022/11/06 02:38:50;;;;;;;29.75;27.85;;;9.80;99.90;;;;;;5090193;28;20433;-54
2022/11/06 02:41:21;;;;;;;29.60;27.65;;;9.60;99.90;;;;;;5090448;28;20374;-52
2022/11/06 02:43:52;;;;;;;32.03;30.13;;;9.60;99.90;;;;;;5091586;28;20579;-51
2022/11/06 02:46:21;;;;;;;31.05;29.08;;;9.60;99.90;;;;;;5091911;28;20657;-49
2022/11/06 02:48:54;;;;;;;28.88;27.15;;;9.60;99.90;;;;;;5092037;28;20381;-53
2022/11/06 02:51:25;;;;;;;32.22;30.33;;;9.70;99.90;;;;;;5092009;28;20386;-52
2022/11/06 02:53:55;;;;;;;29.33;27.48;;;9.70;99.90;;;;;;5093512;28;20423;-50
2022/11/06 02:56:25;;;;;;;30.43;28.73;;;9.70;99.90;;;;;;5092616;28;20911;-48
2022/11/06 02:59:13;;;;;;;32.80;30.75;;;9.70;99.90;;;;;;5092875;28;20565;-51
2022/11/06 03:01:45;;;;;;;31.23;29.33;;;9.60;99.90;;;;;;5092314;28;20385;-49
2022/11/06 03:04:31;;;;;;;31.90;30.02;;;9.60;99.90;;;;;;5092565;28;20477;-50
2022/11/06 03:07:04;;;;;;;29.80;28.02;;;9.60;99.90;;;;;;5093085;28;20378;-49
2022/11/06 03:09:32;;;;;;;29.33;27.35;;;9.60;99.90;;;;;;5093235;28;20374;-49
2022/11/06 03:12:11;;;;;;;29.83;28.02;;;9.60;99.90;;;;;;5092231;28;20543;-53
2022/11/06 03:14:53;;;;;;;29.75;27.95;;;9.50;99.90;;;;;;5090953;28;20635;-52
2022/11/06 03:17:35;;;;;;;28.23;26.45;;;9.60;99.90;;;;;;5090720;28;20727;-55
2022/11/06 03:20:28;;;;;;;25.92;24.35;;;9.60;99.90;;;;;;5092220;28;20390;-50
2022/11/06 03:23:02;;;;;;;25.85;24.25;;;9.60;99.90;;;;;;5090616;28;20455;-53
2022/11/06 03:25:39;;;;;;;28.43;26.70;;;9.70;99.90;;;;;;5087897;28;20386;-51
2022/11/06 03:28:10;;;;;;;28.73;26.83;;;9.60;99.90;;;;;;5089749;28;20707;-51
2022/11/06 03:30:43;;;;;;;29.50;27.65;;;9.60;99.90;;;;;;5088376;28;20424;-49
2022/11/06 03:33:24;;;;;;;28.42;26.65;;;9.60;99.90;;;;;;5087669;28;20386;-50
2022/11/06 03:35:55;;;;;;;30.10;28.08;;;9.60;99.90;;;;;;5088495;28;20397;-48
2022/11/06 03:38:24;;;;;;;29.80;27.80;;;9.60;99.90;;;;;;5087768;28;20732;-53
2022/11/06 03:40:53;;;;;;;28.97;27.27;;;9.60;99.90;;;;;;5087776;28;20374;-48
2022/11/06 03:43:22;;;;;;;29.48;27.67;;;9.60;99.90;;;;;;5087609;28;20471;-48
2022/11/06 03:45:51;;;;;;;27.50;25.73;;;9.60;99.90;;;;;;5090265;28;20458;-49
2022/11/06 03:48:35;;;;;;;26.92;25.13;;;9.60;99.90;;;;;;5089505;28;20494;-50
2022/11/06 03:51:19;;;;;;;26.67;24.95;;;9.50;99.90;;;;;;5090549;28;20389;-49
2022/11/06 03:53:49;;;;;;;25.73;24.13;;;9.60;99.90;;;;;;5091561;28;20839;-53
2022/11/06 03:56:22;;;;;;;25.95;24.30;;;9.60;99.90;;;;;;5089414;28;20778;-51
2022/11/06 03:58:49;;;;;;;29.95;27.95;;;9.60;99.90;;;;;;5088923;28;20405;-50
2022/11/06 04:01:19;;;;;;;28.38;26.50;;;9.60;99.90;;;;;;5071687;28;20471;-54
2022/11/06 04:03:54;;;;;;;28.70;27.00;;;9.60;99.90;;;;;;5089214;28;20834;-48
2022/11/06 04:06:29;;;;;;;26.70;24.90;;;9.70;99.90;;;;;;5089230;28;20406;-52
2022/11/06 04:14:33;;;;;;;27.50;25.70;;;9.70;99.90;;;;;;5094899;28;20812;-52
2022/11/06 04:17:05;;;;;;;30.40;28.53;;;9.70;99.90;;;;;;5092557;28;20794;-50
2022/11/06 04:19:31;;;;;;;26.20;24.52;;;9.70;99.90;;;;;;5093998;28;20405;-50
2022/11/06 04:22:15;;;;;;;29.63;27.93;;;9.70;99.90;;;;;;5093346;28;20386;-57
2022/11/06 04:28:27;;;;;;;26.75;25.05;;;9.60;99.90;;;;;;5094710;28;20381;-54
2022/11/06 04:31:10;;;;;;;26.10;24.00;;;9.50;99.90;;;;;;5077678;28;20396;-55
2022/11/06 04:33:54;;;;;;;22.85;21.45;;;9.50;99.90;;;;;;5094578;28;20398;-55
2022/11/06 04:36:41;;;;;;;24.73;22.98;;;9.50;99.90;;;;;;5097221;28;20381;-53
2022/11/06 04:39:21;;;;;;;24.45;22.70;;;9.50;99.90;;;;;;5096251;28;20695;-55
2022/11/06 04:42:07;;;;;;;25.02;23.42;;;9.50;99.90;;;;;;5096396;28;20480;-53
2022/11/06 04:44:38;;;;;;;22.77;21.17;;;9.40;99.90;;;;;;5092430;28;20385;-54
2022/11/06 04:47:08;;;;;;;23.95;22.35;;;9.40;99.90;;;;;;5091946;28;20397;-52
2022/11/06 04:49:37;;;;;;;24.45;22.75;;;9.50;99.90;;;;;;5092524;28;20794;-50
2022/11/06 04:52:06;;;;;;;26.63;24.90;;;9.50;99.90;;;;;;5090360;28;20397;-51
2022/11/06 04:54:32;;;;;;;25.35;23.73;;;9.50;99.90;;;;;;5092789;28;20382;-54
2022/11/06 04:56:59;;;;;;;26.55;24.95;;;9.50;99.90;;;;;;5093944;28;20431;-52
2022/11/06 04:59:25;;;;;;;24.83;23.20;;;9.50;99.90;;;;;;5094589;28;20509;-54
2022/11/06 05:01:51;;;;;;;26.90;25.10;;;9.40;99.90;;;;;;5094490;28;20708;-53
2022/11/06 05:04:16;;;;;;;24.10;22.43;;;9.40;99.90;;;;;;5093880;28;20454;-54
2022/11/06 05:06:42;;;;;;;26.02;24.30;;;9.40;99.90;;;;;;5093240;28;20502;-51
2022/11/06 05:09:08;;;;;;;27.90;26.02;;;9.40;99.90;;;;;;5092369;28;20397;-54
2022/11/06 05:11:33;;;;;;;23.70;22.10;;;9.40;99.90;;;;;;5093194;28;20535;-51
2022/11/06 05:13:59;;;;;;;26.17;24.40;;;9.40;99.90;;;;;;5093393;28;20525;-50
2022/11/06 05:16:24;;;;;;;25.85;24.17;;;9.50;99.90;;;;;;5092363;28;20398;-51
2022/11/06 05:18:50;;;;;;;23.77;22.30;;;9.40;99.90;;;;;;5092901;28;20459;-51
2022/11/06 05:24:00;;;;;;;26.05;24.35;;;9.50;99.90;;;;;;5091969;28;20948;-52
2022/11/06 05:26:25;;;;;;;27.70;26.00;;;9.50;99.90;;;;;;5088683;28;20390;-52
2022/11/06 05:28:51;;;;;;;27.67;25.90;;;9.50;99.90;;;;;;5089990;28;20386;-55
2022/11/06 05:31:16;;;;;;;25.35;23.67;;;9.50;99.90;;;;;;5090206;28;20405;-52
2022/11/06 05:33:42;;;;;;;27.70;25.83;;;9.40;99.90;;;;;;5091398;28;20446;-53
2022/11/06 05:36:08;;;;;;;26.40;24.80;;;9.50;99.90;;;;;;5090395;28;20433;-51
2022/11/06 05:38:33;;;;;;;27.75;26.15;;;9.50;99.90;;;;;;5092010;28;20410;-53
2022/11/06 05:40:59;;;;;;;25.48;24.00;;;9.50;99.90;;;;;;5094301;28;20378;-50
2022/11/06 05:43:25;;;;;;;27.25;25.45;;;9.50;99.90;;;;;;5091885;28;20380;-56
2022/11/06 05:45:51;;;;;;;29.90;28.10;;;9.50;99.90;;;;;;5091264;28;20398;-54
2022/11/06 05:48:16;;;;;;;30.95;28.95;;;9.40;99.90;;;;;;5090825;28;20386;-53
2022/11/06 05:50:42;;;;;;;26.70;25.13;;;9.40;99.90;;;;;;5089818;28;20398;-52
2022/11/06 05:53:07;;;;;;;25.63;23.93;;;9.40;99.90;;;;;;5089972;28;20477;-54
2022/11/06 05:55:33;;;;;;;25.63;23.98;;;9.40;99.90;;;;;;5087972;28;20382;-51
2022/11/06 05:57:58;;;;;;;29.13;27.40;;;9.40;99.90;;;;;;5086384;28;20702;-52
2022/11/06 06:00:24;;;;;;;26.13;24.27;;;9.40;99.90;;;;;;5085366;28;20394;-52
2022/11/06 06:02:50;;;;;;;28.25;26.55;;;9.40;99.90;;;;;;5082303;28;20469;-54
2022/11/06 06:05:15;;;;;;;26.13;24.40;;;9.40;99.90;;;;;;5082719;28;20390;-54
2022/11/06 06:07:41;;;;;;;28.80;27.07;;;9.40;99.90;;;;;;5083540;28;20476;-51
2022/11/06 06:10:07;;;;;;;25.70;24.10;;;9.50;99.90;;;;;;5084388;28;20587;-52
2022/11/06 06:12:33;;;;;;;25.40;23.90;;;9.40;99.90;;;;;;5085262;28;20457;-52
2022/11/06 06:14:59;;;;;;;29.65;27.75;;;9.40;99.90;;;;;;5085177;28;20516;-53
2022/11/06 06:17:24;;;;;;;28.13;26.47;;;9.40;99.90;;;;;;5085864;28;20438;-51
2022/11/06 06:19:50;;;;;;;28.63;26.83;;;9.40;99.90;;;;;;5086614;28;20410;-49
2022/11/06 06:22:16;;;;;;;31.08;29.27;;;9.40;99.90;;;;;;5087131;28;20386;-56
2022/11/06 06:24:41;;;;;;;31.75;29.65;;;9.40;99.90;;;;;;5086142;28;20797;-52
2022/11/06 06:27:10;;;;;;;30.13;28.13;;;9.40;99.90;;;;;;5086767;28;20378;-53
2022/11/06 06:29:35;;;;;;;27.30;25.50;;;9.40;99.90;;;;;;5086409;28;20373;-53
2022/11/06 06:32:02;;;;;;;28.83;26.92;;;9.40;99.90;;;;;;5086380;28;20506;-54
2022/11/06 06:34:28;;;;;;;28.05;26.27;;;9.40;99.90;;;;;;5087173;28;20738;-55
2022/11/06 06:36:53;;;;;;;28.83;27.07;;;9.40;99.90;;;;;;5085886;28;20945;-54
2022/11/06 06:39:19;;;;;;;26.63;24.97;;;9.40;99.90;;;;;;5085921;28;20468;-53
2022/11/06 06:41:48;;;;;;;29.83;28.03;;;9.40;99.90;;;;;;5086413;28;20374;-53
2022/11/06 06:44:14;;;;;;;30.77;28.98;;;9.40;99.90;;;;;;5087194;28;21055;-50
2022/11/06 06:46:40;;;;;;;32.28;30.48;;;9.50;99.90;;;;;;5087188;28;20412;-50
2022/11/06 06:49:05;;;;;;;31.43;29.73;;;9.50;99.90;;;;;;5088283;28;20394;-56
2022/11/06 06:51:31;;;;;;;28.50;26.80;;;9.50;99.90;;;;;;5090115;28;20484;-54
2022/11/06 06:53:56;;;;;;;32.15;30.35;;;9.50;99.90;;;;;;5091197;28;20595;-54
2022/11/06 06:56:22;;;;;;;32.07;30.10;;;9.50;99.90;;;;;;5087984;28;20690;-53
2022/11/06 06:58:48;;;;;;;32.83;30.63;;;9.50;99.90;;;;;;5086355;28;20882;-54
2022/11/06 07:01:14;;;;;;;30.98;29.08;;;9.50;99.90;;;;;;5084119;28;20755;-51
2022/11/06 07:03:39;;;;;;;31.85;29.95;;;9.50;99.90;;;;;;5082475;28;20557;-53
2022/11/06 07:06:06;;;;;;;31.77;29.75;;;9.40;99.90;;;;;;5081873;28;20755;-52
2022/11/06 07:08:32;;;;;;;30.83;28.97;;;9.50;99.90;;;;;;5082765;28;20443;-52
2022/11/06 07:11:03;;;;;;;29.97;28.07;;;9.50;99.90;;;;;;5082985;28;20382;-54
2022/11/06 07:13:29;;;;;;;28.20;26.37;;;9.50;99.90;;;;;;5084637;28;20389;-53
2022/11/06 07:15:54;;;;;;;29.85;28.00;;;9.50;99.90;;;;;;5084592;28;20398;-48
2022/11/06 07:18:20;;;;;;;28.23;26.33;;;9.50;99.90;;;;;;5083533;28;20495;-53
2022/11/06 07:20:45;;;;;;;27.30;25.77;;;9.50;99.90;;;;;;5084033;28;20415;-55
2022/11/06 07:23:11;;;;;;;29.33;27.55;;;9.50;99.90;;;;;;5083118;28;20385;-51
2022/11/06 07:25:36;;;;;;;30.40;28.50;;;9.60;99.90;;;;;;5081764;28;20716;-55
2022/11/06 07:28:04;;;;;;;28.47;26.77;;;9.60;99.90;;;;;;5081686;28;20417;-51
2022/11/06 07:30:30;;;;;;;30.98;29.17;;;9.60;99.90;;;;;;5083267;28;20398;-52
2022/11/06 07:32:58;;;;;;;30.25;28.35;;;9.60;99.90;;;;;;5082540;28;20673;-52
2022/11/06 07:35:24;;;;;;;31.80;29.80;;;9.60;99.90;;;;;;5084192;28;20436;-52
2022/11/06 07:37:49;;;;;;;30.95;29.05;;;9.60;99.90;;;;;;5084163;28;20425;-54
2022/11/06 07:40:15;;;;;;;33.13;31.13;;;9.70;99.90;;;;;;5086076;28;20799;-51
2022/11/06 07:42:40;;;;;;;33.67;31.53;;;9.60;99.90;;;;;;5085366;28;20374;-51
2022/11/06 07:45:06;;;;;;;30.15;28.42;;;9.70;99.90;;;;;;5081986;28;20546;-54
2022/11/06 07:47:32;;;;;;;30.63;28.63;;;9.70;99.90;;;;;;5080957;28;20681;-50
2022/11/06 07:49:58;;;;;;;30.95;29.05;;;9.70;99.90;;;;;;5081708;28;20633;-56
2022/11/06 07:52:23;;;;;;;31.05;29.20;;;9.70;99.90;;;;;;5080608;28;20728;-55
2022/11/06 07:54:49;;;;;;;31.47;29.67;;;9.70;99.90;;;;;;5080818;28;20747;-49
2022/11/06 07:57:15;;;;;;;30.40;28.60;;;9.80;99.90;;;;;;5079386;28;20591;-55
2022/11/06 07:59:41;;;;;;;27.50;25.80;;;9.80;99.90;;;;;;5078872;28;20689;-53
2022/11/06 08:02:11;;;;;;;31.43;29.67;;;9.80;99.90;;;;;;5081250;28;20370;-55
2022/11/06 08:04:37;;;;;;;33.30;31.13;;;9.80;99.90;;;;;;5083011;28;20382;-51
2022/11/06 08:07:02;;;;;;;34.80;32.70;;;9.90;99.90;;;;;;5081371;28;20618;-53
2022/11/06 08:09:28;;;;;;;32.77;30.80;;;9.90;99.90;;;;;;5079969;28;20671;-57
2022/11/06 08:11:54;;;;;;;33.13;31.03;;;9.90;99.90;;;;;;5081380;28;20408;-51
2022/11/06 08:14:19;;;;;;;31.60;29.90;;;10.00;99.90;;;;;;5081042;28;20386;-50
2022/11/06 08:16:45;;;;;;;34.80;32.65;;;10.00;99.90;;;;;;5082389;28;20801;-55
2022/11/06 08:19:10;;;;;;;34.33;32.50;;;10.00;99.90;;;;;;5082102;28;20673;-54
2022/11/06 08:21:36;;;;;;;32.42;30.48;;;10.00;99.90;;;;;;5080777;28;20394;-49
2022/11/06 08:24:02;;;;;;;33.53;31.53;;;10.00;99.90;;;;;;5082838;28;20472;-53
2022/11/06 08:26:28;;;;;;;30.88;29.15;;;10.00;99.90;;;;;;5081821;28;20406;-51
2022/11/06 08:28:53;;;;;;;33.95;31.75;;;10.00;99.90;;;;;;5082716;28;20871;-50
2022/11/06 08:31:19;;;;;;;33.20;31.20;;;10.00;99.90;;;;;;5084898;28;20518;-49
2022/11/06 08:33:45;;;;;;;31.77;29.88;;;10.00;99.90;;;;;;5082451;28;20420;-52
2022/11/06 08:36:11;;;;;;;34.53;32.63;;;10.00;99.90;;;;;;5084445;28;20809;-53
2022/11/06 08:38:36;;;;;;;33.90;32.00;;;10.10;99.90;;;;;;5081646;28;20404;-53
2022/11/06 08:41:06;;;;;;;36.63;34.28;;;10.10;99.90;;;;;;5083874;28;20382;-51
2022/11/06 08:43:32;;;;;;;34.75;32.65;;;10.10;99.90;;;;;;5081620;28;20474;-54
2022/11/06 08:45:58;;;;;;;33.35;31.45;;;10.20;99.90;;;;;;5080930;28;20512;-53
2022/11/06 08:48:24;;;;;;;33.38;31.45;;;10.30;99.90;;;;;;5075805;28;20959;-55
2022/11/06 08:50:49;;;;;;;33.97;32.10;;;10.30;99.90;;;;;;5076439;28;20827;-56
2022/11/06 08:53:15;;;;;;;32.15;30.35;;;10.30;99.90;;;;;;5076484;28;20382;-53
2022/11/06 08:55:40;;;;;;;33.50;31.50;;;10.40;99.90;;;;;;5079256;28;20413;-53
2022/11/06 08:58:06;;;;;;;34.35;32.35;;;10.40;99.90;;;;;;5079862;28;20676;-51
2022/11/06 09:00:33;;;;;;;33.03;31.05;;;10.50;99.90;;;;;;5083681;28;20401;-52
2022/11/06 09:03:00;;;;;;;32.97;31.00;;;10.50;99.90;;;;;;5085870;28;20400;-53
2022/11/06 09:05:26;;;;;;;35.20;33.20;;;10.50;99.90;;;;;;5085721;28;20477;-54
2022/11/06 09:07:52;;;;;;;33.67;31.65;;;10.80;99.90;;;;;;5085039;28;20474;-60
2022/11/06 09:10:17;;;;;;;31.98;30.17;;;11.10;99.90;;;;;;5085275;28;20493;-56
2022/11/06 09:12:43;;;;;;;28.07;26.57;;;11.30;99.90;;;;;;5086837;28;20401;-55
2022/11/06 09:15:09;;;;;;;27.90;26.30;;;11.50;99.90;;;;;;5086773;28;20466;-50
2022/11/06 09:17:43;;;;;;;33.30;31.35;;;11.50;99.90;;;;;;5085875;28;20398;-54
2022/11/06 09:20:10;;;;;;;29.27;27.58;;;11.30;99.90;;;;;;5086694;28;20378;-54
2022/11/06 09:22:35;;;;;;;30.98;29.00;;;11.20;99.90;;;;;;5083947;28;20378;-54
2022/11/06 09:25:01;;;;;;;31.95;29.80;;;11.00;99.90;;;;;;5085614;28;20397;-54
2022/11/06 09:27:27;;;;;;;31.83;30.02;;;11.00;99.90;;;;;;5085878;28;20385;-52
2022/11/06 09:29:52;;;;;;;33.92;32.03;;;10.90;99.90;;;;;;5084542;28;20409;-53
2022/11/06 09:32:18;;;;;;;34.10;32.03;;;10.90;99.90;;;;;;5084781;28;20437;-53
2022/11/06 09:34:44;;;;;;;34.53;32.47;;;10.90;99.90;;;;;;5085932;28;20398;-55
2022/11/06 09:37:09;;;;;;;35.15;33.05;;;11.00;99.90;;;;;;5085299;28;20386;-53
2022/11/06 09:39:35;;;;;;;32.50;30.53;;;11.00;99.90;;;;;;5085910;28;20406;-53
2022/11/06 09:42:20;;;;;;;33.10;31.30;;;11.00;99.90;;;;;;5084799;28;20382;-55
2022/11/06 09:44:45;;;;;;;32.83;30.88;;;11.00;99.90;;;;;;5087135;28;20420;-51
2022/11/06 09:47:25;;;;;;;31.47;29.67;;;11.00;99.90;;;;;;5086203;28;20382;-51
2022/11/06 09:49:53;;;;;;;30.85;29.08;;;11.00;99.90;;;;;;5087524;28;20382;-55
2022/11/06 09:52:30;;;;;;;31.45;29.45;;;11.10;99.90;;;;;;5088587;28;20385;-55
2022/11/06 09:55:09;;;;;;;28.63;26.92;;;11.00;99.90;;;;;;5086721;28;20469;-54
2022/11/06 09:57:53;;;;;;;36.20;34.08;;;11.00;99.90;;;;;;5086653;28;20421;-54
2022/11/06 10:00:19;;;;;;;30.48;28.67;;;11.10;99.90;;;;;;5086864;28;20827;-53
2022/11/06 10:03:04;;;;;;;33.88;31.83;;;11.10;99.90;;;;;;5085748;28;20386;-54
2022/11/06 10:05:32;;;;;;;30.75;28.90;;;11.10;99.90;;;;;;5087366;28;20906;-53
2022/11/06 10:08:06;;;;;;;31.63;29.88;;;11.10;99.90;;;;;;5086339;28;21127;-56
2022/11/06 10:10:52;;;;;;;35.20;33.10;;;11.20;99.90;;;;;;5087049;28;20489;-56
2022/11/06 10:13:26;;;;;;;32.78;31.08;;;11.30;99.90;;;;;;5087320;28;20793;-55
2022/11/06 10:16:19;;;;;;;33.53;31.83;;;11.30;99.90;;;;;;5088557;28;20820;-53
2022/11/06 10:18:53;;;;;;;33.00;31.00;;;11.40;99.90;;;;;;5088232;28;20408;-55
2022/11/06 10:21:19;;;;;;;27.05;25.55;;;11.40;99.90;;;;;;5089738;28;20385;-53
2022/11/06 10:23:51;;;;;;;31.33;29.33;;;11.50;99.90;;;;;;5089983;28;20386;-51
2022/11/06 10:26:28;;;;;;;33.78;31.95;;;11.50;99.90;;;;;;5090779;28;20683;-50
2022/11/06 10:29:31;;;;;;;32.10;30.40;;;11.50;99.90;;;;;;5089457;28;20394;-58
2022/11/06 10:32:08;;;;;;;30.60;28.98;;;11.70;99.90;;;;;;5087977;28;20396;-55
2022/11/06 10:34:42;;;;;;;30.30;28.33;;;11.70;99.90;;;;;;5088387;28;20405;-52
2022/11/06 10:37:09;;;;;;;31.95;30.27;;;11.70;99.90;;;;;;5089067;28;20502;-54
2022/11/06 10:39:35;;;;;;;35.53;33.65;;;11.70;99.90;;;;;;5086211;28;20674;-56
2022/11/06 10:42:14;;;;;;;31.88;30.05;;;11.60;99.90;;;;;;5090241;28;20413;-57
2022/11/06 10:44:43;;;;;;;32.72;30.83;;;11.60;99.90;;;;;;5090408;28;20670;-54
2022/11/06 10:47:14;;;;;;;29.58;27.88;;;11.70;99.90;;;;;;5087348;28;20384;-50
2022/11/06 10:49:52;;;;;;;30.73;28.93;;;11.70;99.90;;;;;;5088384;28;20393;-54
2022/11/06 10:52:46;;;;;;;33.30;31.38;;;11.80;99.90;;;;;;5085302;28;20374;-53
2022/11/06 10:55:38;;;;;;;33.90;31.80;;;11.90;99.90;;;;;;5086645;28;20382;-52
2022/11/06 10:58:06;;;;;;;26.27;24.80;;;12.00;99.90;;;;;;5085277;28;20841;-54
2022/11/06 11:00:33;;;;;;;30.50;28.80;;;12.00;99.90;;;;;;5086947;28;20496;-54
2022/11/06 11:03:00;;;;;;;32.30;30.50;;;12.00;99.90;;;;;;5088598;28;20670;-54
2022/11/06 11:05:40;;;;;;;29.80;28.05;;;12.10;99.90;;;;;;5088774;28;20385;-58
2022/11/06 11:08:26;;;;;;;33.72;31.80;;;12.10;99.90;;;;;;5088101;28;20408;-55
2022/11/06 11:10:51;;;;;;;27.88;26.08;;;12.20;99.90;;;;;;5084548;28;20413;-56
2022/11/06 11:13:19;;;;;;;31.60;29.88;;;12.10;99.90;;;;;;5083810;28;20817;-57
2022/11/06 11:15:46;;;;;;;32.05;30.25;;;12.20;99.90;;;;;;5083377;28;20860;-58
2022/11/06 11:18:11;;;;;;;33.20;31.33;;;12.30;99.90;;;;;;5081507;28;20517;-58
2022/11/06 11:20:39;;;;;;;30.70;28.90;;;12.50;99.90;;;;;;5079428;28;20394;-56
2022/11/06 11:23:21;;;;;;;34.53;32.70;;;12.70;99.90;;;;;;5080306;28;20386;-58
2022/11/06 11:25:56;;;;;;;35.20;33.35;;;12.90;99.90;;;;;;5083196;28;20374;-58
2022/11/06 11:28:33;;;;;;;47.95;45.05;;;13.20;99.90;;;;;;5084109;28;20384;-58
2022/11/06 11:31:13;;;;;;;47.17;44.35;;;13.20;99.90;;;;;;5085719;28;20835;-57
2022/11/06 11:33:41;;;;;;;35.35;33.42;;;13.30;99.90;;;;;;5083771;28;20378;-58
2022/11/06 11:36:08;;;;;;;41.42;39.13;;;13.50;99.90;;;;;;5083653;28;20394;-57
2022/11/06 11:38:37;;;;;;;39.05;36.90;;;13.50;99.90;;;;;;5081825;28;20403;-57
2022/11/06 11:41:07;;;;;;;37.92;35.75;;;13.50;99.90;;;;;;5079665;28;20799;-57
2022/11/06 11:43:33;;;;;;;35.25;33.08;;;13.60;99.90;;;;;;5081681;28;21076;-57
2022/11/06 11:46:08;;;;;;;34.00;32.10;;;13.50;99.90;;;;;;5081936;28;20398;-55
2022/11/06 11:48:42;;;;;;;37.80;35.80;;;13.60;99.90;;;;;;5077708;28;20473;-53
2022/11/06 11:51:12;;;;;;;39.30;37.05;;;13.70;99.90;;;;;;5080638;28;20480;-55
2022/11/06 11:53:38;;;;;;;44.58;42.20;;;14.00;99.90;;;;;;5081986;28;20416;-57
2022/11/06 11:56:06;;;;;;;50.72;48.08;;;14.20;99.90;;;;;;5083066;28;20392;-55
2022/11/06 11:58:32;;;;;;;50.03;47.50;;;14.20;99.90;;;;;;5080566;28;20413;-55
2022/11/06 12:01:01;;;;;;;48.72;46.15;;;14.30;99.90;;;;;;5080940;28;20398;-56
2022/11/06 12:03:33;;;;;;;45.08;42.60;;;14.40;99.90;;;;;;5079960;28;20386;-56
2022/11/06 12:06:14;;;;;;;33.38;31.60;;;14.50;99.90;;;;;;5081375;28;20436;-53
2022/11/06 12:08:47;;;;;;;31.73;29.98;;;14.60;99.90;;;;;;5079723;28;20465;-56
2022/11/06 12:11:25;;;;;;;40.17;38.13;;;14.70;99.90;;;;;;5076597;28;20386;-58
2022/11/06 12:14:28;;;;;;;34.40;32.67;;;14.70;99.90;;;;;;5075045;28;20412;-58
2022/11/06 12:17:18;;;;;;;39.63;37.33;;;14.80;99.90;;;;;;5076321;28;20866;-52
2022/11/06 12:19:50;;;;;;;39.67;37.47;;;14.50;99.90;;;;;;5078802;28;20401;-58
2022/11/06 12:22:24;;;;;;;33.53;31.65;;;14.20;99.90;;;;;;5077892;28;21011;-57
2022/11/06 12:25:18;;;;;;;31.92;30.20;;;14.10;99.90;;;;;;5078905;28;20370;-55
2022/11/06 12:27:48;;;;;;;32.58;30.52;;;14.30;99.90;;;;;;5086993;28;20405;-58
2022/11/06 12:30:17;;;;;;;30.95;29.30;;;14.30;99.90;;;;;;5080088;28;20544;-57
2022/11/06 12:33:00;;;;;;;33.40;31.60;;;14.30;99.90;;;;;;5084412;28;20389;-58
2022/11/06 12:35:38;;;;;;;32.00;30.20;;;14.10;99.90;;;;;;5081183;28;20402;-58
2022/11/06 12:38:13;;;;;;;34.35;32.42;;;14.10;99.90;;;;;;5083237;28;20841;-55
2022/11/06 12:40:43;;;;;;;28.83;27.30;;;13.90;99.90;;;;;;5083342;28;20378;-58
2022/11/06 12:43:33;;;;;;;37.30;35.33;;;13.90;99.90;;;;;;5087018;28;20797;-56
2022/11/06 12:46:07;;;;;;;33.60;31.85;;;13.80;99.90;;;;;;5088127;28;20393;-54
2022/11/06 12:48:48;;;;;;;43.30;41.03;;;13.80;99.90;;;;;;5087253;28;20392;-54
2022/11/06 12:51:43;;;;;;;32.72;30.92;;;13.80;99.90;;;;;;5085524;28;20388;-55
2022/11/06 12:54:43;;;;;;;35.60;33.60;;;13.90;99.90;;;;;;5086108;28;20381;-55
2022/11/06 12:57:25;;;;;;;32.17;30.45;;;13.90;99.90;;;;;;5065063;28;21106;-58
2022/11/06 13:00:12;;;;;;;44.33;42.03;;;14.20;99.90;;;;;;5086189;28;20492;-56
2022/11/06 13:03:16;;;;;;;55.17;52.47;;;14.30;99.90;;;;;;5087352;28;20383;-58
2022/11/06 13:06:15;;;;;;;80.53;76.33;;;14.50;99.90;;;;;;5089897;28;20418;-57